Airfield :
LOGIN :

Register | Disclaimer

   EN    FR    IT 

 










Legend :    VFR   Marginal VFR   IFR   Intensive IFR   Very Intensive IFR
Visi :
Ceiling :
>= 8 km
>= 3000ft
5 to 8 km
1000 to 3000 ft
1500m to 5 km
500 to 1000 ft
800 to 1500m
200 to 500 ft
< 800m
< 200 ft
Symbols :   Thunderstorms  Fog  Heavy snow  Heavy precipitations  Wind > 20 kt
SIGMETs :     Misc.  Thunderstorms  Icing  Turbulence  Mountain Waves  Volcanic Ashes







- Airport Elevation : 17 ft
- IATA code : MPL
- Download approach charts


LFMT - Montpellier Méditerranée

CURRENT METAR :
  • 130600Z AUTO 01005KT 9999 OVC046 03/M00 Q1011 NOSIG

EXPIRED METARs :
  • 130530Z AUTO 02009KT 290V030 9999 OVC045 02/M00 Q1011 NOSIG
  • 130500Z AUTO 03008KT 9999 BKN048 OVC170 02/M01 Q1011 NOSIG
  • 130430Z AUTO 03004KT 9999 OVC048 02/M01 Q1012 NOSIG
  • 130400Z AUTO 03003KT 9999 BKN047 OVC064 01/M01 Q1012 NOSIG
  • 130330Z AUTO 04004KT 360V080 9999 FEW049 BKN210 01/M02 Q1012 NOSIG

TAF TAF LFMT
Valid from the 13 at 03:00 until the 14 at 03:00 UTC


130200Z 1303/1403 02012KT 9999 OVC045
TEMPO 1311/1403 5000 -RA BKN012 OVC025
ATIS : +33 4 67 13 11 70
No reported NOTAMs for that airfield.



MET'MAP, your aeronautical weather chart ! - Copyright ORBIFLY December 2007 - Disclaimer

ORBIFLY MET'MAP TEAM :

Programming & Development : Alexandra Zaïnal
Concept & Development : Baudouin d'Aumeries
Co-Development & Prog : Marc-Olivier Méhu
Technical & hardware support : Manuel Goepfert

Contact : metmap@orbifly.com




SOURCES & CREDITS :

   NOAA